PATER weather

Campo di Volo Albatros
Termini Imerese (PA), Sicily, Italy

Public forecast

Using degrees Celsius for public forecast. Weather courtesy of forecast.io.

Closest aviation weather report (METAR) to Campo di Volo Albatros

Closest report is Falcone–Borsellino Airport, 34.4 nm (63.8 km) WNW. Retrieved 2019/12/09 04:20 UTC (26 minutes ago):

LICJ 090420Z 15004KT 9999 -RA FEW075 13/11 Q1016

Closest aviation forecast (TAF) to Campo di Volo Albatros

Closest forecast is Falcone–Borsellino Airport, 34.4 nm (63.8 km) WNW. Retrieved 2019-12-09 00:00 UTC (5 hours ago):

TAF LICJ 082300Z 0900/0924 VRB05KT 9999 SCT030 BECMG 0904/0906 27012KT TEMPO 0906/0909 RA